Time;durP1;ratioP1;P1;durP2;ratioP2;P2;SDS_P1;SDS_P2;PMS_P1;PMS_P2;Temp;Humidity;BMP_temperature;BMP_pressure;BME280_temperature;BME280_humidity;BME280_pressure;Samples;Min_cycle;Max_cycle;Signal;HPM_P1;HPM_P2
2023/04/28 00:01:40;;;;;;;3.80;3.50;;;1.70;44.80;;;;;;5052766;28;20456;-49
2023/04/28 00:04:07;;;;;;;4.50;4.10;;;1.70;41.10;;;;;;5058715;28;20492;-49
2023/04/28 00:06:33;;;;;;;4.90;4.07;;;1.70;38.80;;;;;;5050536;28;20497;-50
2023/04/28 00:09:00;;;;;;;6.33;4.00;;;1.60;39.50;;;;;;5053117;28;20827;-50
2023/04/28 00:11:28;;;;;;;4.47;3.77;;;1.60;39.20;;;;;;5053553;28;20449;-49
2023/04/28 00:13:54;;;;;;;10.93;3.57;;;1.50;38.50;;;;;;5060842;28;20573;-50
2023/04/28 00:16:21;;;;;;;4.37;3.70;;;1.50;36.10;;;;;;5053159;28;20472;-49
2023/04/28 00:18:48;;;;;;;10.03;3.73;;;1.50;33.20;;;;;;5052913;28;20546;-55
2023/04/28 00:21:14;;;;;;;6.33;3.83;;;1.40;32.90;;;;;;5054869;28;20510;-50
2023/04/28 00:23:41;;;;;;;6.77;4.00;;;1.40;34.00;;;;;;5049667;28;20511;-50
2023/04/28 00:26:07;;;;;;;13.80;5.00;;;1.40;33.10;;;;;;5052677;28;20461;-50
2023/04/28 00:28:35;;;;;;;6.67;4.27;;;1.40;30.70;;;;;;5052333;28;20550;-49
2023/04/28 00:31:02;;;;;;;4.50;3.83;;;1.40;27.70;;;;;;5049916;28;20480;-49
2023/04/28 00:33:29;;;;;;;4.10;3.63;;;1.30;29.10;;;;;;5052102;28;20858;-51
2023/04/28 00:36:00;;;;;;;7.47;5.17;;;1.30;30.30;;;;;;5059624;28;20468;-50
2023/04/28 00:38:26;;;;;;;12.97;6.00;;;1.30;25.50;;;;;;5060468;28;20465;-50
2023/04/28 00:40:53;;;;;;;6.80;5.43;;;1.40;24.70;;;;;;5055518;28;20493;-50
2023/04/28 00:43:19;;;;;;;6.07;4.73;;;1.40;21.20;;;;;;5051828;28;20511;-50
2023/04/28 00:45:49;;;;;;;5.17;4.43;;;1.30;28.10;;;;;;5051091;28;20496;-50
2023/04/28 00:48:15;;;;;;;6.10;4.90;;;1.30;26.60;;;;;;5053982;28;20628;-50
2023/04/28 00:50:42;;;;;;;4.87;4.10;;;1.30;24.90;;;;;;5052968;28;20475;-50
2023/04/28 00:53:10;;;;;;;4.80;4.20;;;1.30;82.70;;;;;;5051017;28;20520;-50
2023/04/28 00:55:37;;;;;;;7.73;5.23;;;1.30;81.90;;;;;;5053400;28;20483;-49
2023/04/28 00:58:05;;;;;;;7.93;4.60;;;1.30;93.30;;;;;;5052574;28;20492;-50
2023/04/28 01:00:32;;;;;;;5.80;5.00;;;1.30;79.10;;;;;;5043167;28;20989;-49
2023/04/28 01:03:00;;;;;;;6.93;4.40;;;1.30;85.50;;;;;;5052649;28;20492;-49
2023/04/28 01:05:28;;;;;;;7.00;5.20;;;1.30;93.80;;;;;;5048630;28;20464;-50
2023/04/28 01:07:55;;;;;;;7.97;5.73;;;1.30;81.80;;;;;;5052686;28;20980;-49
2023/04/28 01:10:21;;;;;;;5.83;4.60;;;1.30;20.70;;;;;;5050126;28;20557;-49
2023/04/28 01:12:48;;;;;;;9.77;5.20;;;1.30;99.90;;;;;;5051554;28;20483;-50
2023/04/28 01:15:16;;;;;;;14.93;5.50;;;1.30;99.90;;;;;;5053033;28;20979;-50
2023/04/28 01:17:43;;;;;;;8.73;5.23;;;1.30;99.90;;;;;;5045307;28;20515;-50
2023/04/28 01:20:12;;;;;;;5.43;4.93;;;1.40;99.90;;;;;;5050676;28;21016;-49
2023/04/28 01:22:38;;;;;;;9.47;6.10;;;1.40;99.90;;;;;;5048698;28;20577;-50
2023/04/28 01:25:07;;;;;;;6.90;5.13;;;1.40;99.90;;;;;;5062540;28;20457;-50
2023/04/28 01:27:33;;;;;;;8.10;5.77;;;1.30;99.90;;;;;;5060391;28;20443;-50
2023/04/28 01:30:00;;;;;;;6.63;5.20;;;1.30;99.90;;;;;;5060403;28;20473;-50
2023/04/28 01:32:27;;;;;;;9.53;5.60;;;1.30;99.90;;;;;;5056260;28;20465;-50
2023/04/28 01:34:53;;;;;;;6.83;5.07;;;1.30;99.90;;;;;;5040522;28;20531;-49
2023/04/28 01:37:20;;;;;;;6.13;4.80;;;1.30;99.90;;;;;;5051791;28;20475;-49
2023/04/28 01:39:46;;;;;;;5.77;4.70;;;1.30;99.90;;;;;;5052341;28;20449;-50
2023/04/28 01:42:14;;;;;;;6.50;5.27;;;1.30;99.90;;;;;;5036633;28;20522;-50
2023/04/28 01:44:41;;;;;;;5.30;4.77;;;1.30;99.90;;;;;;5048019;28;20958;-50
2023/04/28 01:47:07;;;;;;;5.97;5.37;;;1.30;99.90;;;;;;5052141;28;20870;-50
2023/04/28 01:49:34;;;;;;;5.80;5.20;;;1.30;99.90;;;;;;5052307;28;20800;-49
2023/04/28 01:52:00;;;;;;;10.00;5.77;;;1.30;99.90;;;;;;5051865;28;20879;-50
2023/04/28 01:54:27;;;;;;;11.53;6.10;;;1.30;99.90;;;;;;5048848;28;20564;-50
2023/04/28 01:56:53;;;;;;;8.80;5.30;;;1.30;99.90;;;;;;5051010;28;20467;-49
2023/04/28 01:59:21;;;;;;;7.73;6.10;;;1.30;99.90;;;;;;5051221;28;20447;-50
2023/04/28 02:01:48;;;;;;;9.80;5.90;;;1.20;99.90;;;;;;5050423;28;20511;-49
2023/04/28 02:04:14;;;;;;;7.33;5.63;;;1.20;99.90;;;;;;5050762;28;20874;-49
2023/04/28 02:06:41;;;;;;;6.67;5.87;;;1.20;99.90;;;;;;5054656;28;20460;-50
2023/04/28 02:09:07;;;;;;;8.30;5.50;;;1.20;99.90;;;;;;5054523;28;20543;-50
2023/04/28 02:11:34;;;;;;;11.77;5.87;;;1.20;99.90;;;;;;5052128;28;20510;-51
2023/04/28 02:14:00;;;;;;;6.97;5.53;;;1.20;99.90;;;;;;5042200;28;20485;-49
2023/04/28 02:16:28;;;;;;;8.47;5.40;;;1.20;99.90;;;;;;5058330;28;20460;-49
2023/04/28 02:18:55;;;;;;;9.23;5.57;;;1.20;99.90;;;;;;5057089;28;20468;-50
2023/04/28 02:21:21;;;;;;;7.93;5.30;;;1.20;99.90;;;;;;5052589;28;20515;-50
2023/04/28 02:23:49;;;;;;;8.60;5.03;;;1.20;99.90;;;;;;5044508;28;20533;-50
2023/04/28 02:26:16;;;;;;;5.60;4.50;;;1.10;99.90;;;;;;5046213;28;20519;-50
2023/04/28 02:28:42;;;;;;;4.97;4.37;;;1.10;99.90;;;;;;5051291;28;20594;-50
2023/04/28 02:31:12;;;;;;;8.93;5.33;;;1.10;99.90;;;;;;5050898;28;20463;-50
2023/04/28 02:33:41;;;;;;;8.30;4.67;;;1.10;99.90;;;;;;5050549;28;20488;-50
2023/04/28 02:36:08;;;;;;;5.50;5.00;;;1.10;99.90;;;;;;5054974;28;20545;-50
2023/04/28 02:38:35;;;;;;;7.00;5.10;;;1.10;99.90;;;;;;5049997;28;20491;-50
2023/04/28 02:41:03;;;;;;;5.90;5.30;;;1.20;99.90;;;;;;5053655;28;20456;-49
2023/04/28 02:43:31;;;;;;;5.97;5.37;;;1.10;99.90;;;;;;5046285;28;20540;-49
2023/04/28 02:45:57;;;;;;;7.50;4.90;;;1.10;99.90;;;;;;5052061;28;20465;-49
2023/04/28 02:48:25;;;;;;;6.30;4.40;;;1.10;99.90;;;;;;5048886;28;20462;-50
2023/04/28 02:50:53;;;;;;;6.70;5.17;;;1.10;99.90;;;;;;5053209;28;20512;-50
2023/04/28 02:53:20;;;;;;;5.60;5.03;;;1.10;99.90;;;;;;5045986;28;20494;-50
2023/04/28 02:55:46;;;;;;;7.60;5.30;;;1.10;99.90;;;;;;5050007;28;20522;-50
2023/04/28 02:58:13;;;;;;;6.80;5.60;;;1.10;99.90;;;;;;5053047;28;20493;-50
2023/04/28 03:00:39;;;;;;;7.50;4.90;;;1.10;99.90;;;;;;5050260;28;20517;-50
2023/04/28 03:03:06;;;;;;;8.80;4.87;;;1.10;99.90;;;;;;5055423;28;20478;-50
2023/04/28 03:05:33;;;;;;;7.17;5.17;;;1.20;99.90;;;;;;5049130;28;21095;-50
2023/04/28 03:08:00;;;;;;;9.07;5.37;;;1.10;99.90;;;;;;5053866;28;20513;-49
2023/04/28 03:10:27;;;;;;;12.07;5.23;;;1.10;99.90;;;;;;5046152;28;20492;-50
2023/04/28 03:12:54;;;;;;;8.17;4.73;;;1.20;99.90;;;;;;5056504;28;20526;-50
2023/04/28 03:15:20;;;;;;;6.60;4.97;;;1.20;99.90;;;;;;5053829;28;20517;-49
2023/04/28 03:17:47;;;;;;;5.70;5.20;;;1.30;99.90;;;;;;5049485;28;20497;-50
2023/04/28 03:20:14;;;;;;;11.53;6.10;;;1.30;99.90;;;;;;5050399;28;20488;-49
2023/04/28 03:22:41;;;;;;;4.83;4.43;;;1.40;99.90;;;;;;5048196;28;21056;-50
2023/04/28 03:25:09;;;;;;;7.03;5.10;;;1.40;99.90;;;;;;5053547;28;20521;-50
2023/04/28 03:27:36;;;;;;;5.27;4.87;;;1.40;99.90;;;;;;5056691;28;20492;-49
2023/04/28 03:30:02;;;;;;;7.40;4.30;;;1.50;99.90;;;;;;5051539;28;20459;-51
2023/04/28 03:32:31;;;;;;;4.70;4.20;;;1.50;99.90;;;;;;5057672;28;20486;-49
2023/04/28 03:34:57;;;;;;;5.10;4.63;;;1.50;99.90;;;;;;5048209;28;20547;-49
2023/04/28 03:37:24;;;;;;;6.30;4.30;;;1.60;99.90;;;;;;5051222;28;20460;-50
2023/04/28 03:39:50;;;;;;;8.77;4.80;;;1.70;99.90;;;;;;5049708;28;20825;-50
2023/04/28 03:42:18;;;;;;;7.80;4.77;;;1.80;99.90;;;;;;5047969;28;21067;-50
2023/04/28 03:44:45;;;;;;;5.13;4.60;;;1.80;99.90;;;;;;5051059;28;20562;-49
2023/04/28 03:47:12;;;;;;;4.80;4.40;;;1.80;99.90;;;;;;5043021;28;20545;-49
2023/04/28 03:49:38;;;;;;;9.10;4.40;;;1.90;99.90;;;;;;5051322;28;20448;-49
2023/04/28 03:52:05;;;;;;;5.53;4.23;;;1.90;99.90;;;;;;5051132;28;20488;-50
2023/04/28 03:54:31;;;;;;;5.07;4.03;;;2.00;99.90;;;;;;5051867;28;20488;-49
2023/04/28 03:56:59;;;;;;;14.20;5.83;;;2.00;99.90;;;;;;5054380;28;20505;-49
2023/04/28 03:59:27;;;;;;;9.17;4.50;;;2.10;87.50;;;;;;5054279;28;20456;-49
2023/04/28 04:01:54;;;;;;;4.40;4.03;;;2.10;97.20;;;;;;5053111;28;20565;-50
2023/04/28 04:04:20;;;;;;;6.77;4.47;;;2.20;75.10;;;;;;5053406;28;20471;-49
2023/04/28 04:06:47;;;;;;;7.20;4.37;;;2.30;23.10;;;;;;5061254;28;20514;-50
2023/04/28 04:09:14;;;;;;;6.13;4.20;;;2.40;21.10;;;;;;5048743;28;20464;-49
2023/04/28 04:11:40;;;;;;;9.13;5.00;;;2.40;27.00;;;;;;5054901;28;20466;-50
2023/04/28 04:14:07;;;;;;;4.90;3.93;;;2.50;33.70;;;;;;5053606;28;20505;-50
2023/04/28 04:16:35;;;;;;;6.87;4.83;;;2.50;33.50;;;;;;5061064;28;20601;-50
2023/04/28 04:19:02;;;;;;;5.60;4.40;;;2.60;33.30;;;;;;5057268;28;20459;-50
2023/04/28 04:21:30;;;;;;;8.03;3.93;;;2.60;36.80;;;;;;5056108;28;20468;-50
2023/04/28 04:23:57;;;;;;;6.60;4.10;;;2.60;37.20;;;;;;5052515;28;20436;-50
2023/04/28 04:26:23;;;;;;;7.00;4.67;;;2.70;38.30;;;;;;5050830;28;20457;-50
2023/04/28 04:28:50;;;;;;;6.43;4.23;;;2.70;39.80;;;;;;5046349;28;20464;-49
2023/04/28 04:31:18;;;;;;;6.53;4.30;;;2.70;40.30;;;;;;5049286;28;20477;-56
2023/04/28 04:33:46;;;;;;;6.20;4.07;;;2.80;40.70;;;;;;5054149;28;20484;-54
2023/04/28 04:36:13;;;;;;;5.93;4.20;;;2.80;43.20;;;;;;5048090;28;20463;-56
2023/04/28 04:38:39;;;;;;;15.13;4.10;;;2.90;45.20;;;;;;5051905;28;20460;-56
2023/04/28 04:41:06;;;;;;;5.20;4.03;;;3.00;46.30;;;;;;5045380;28;20453;-56
2023/04/28 04:43:33;;;;;;;8.37;3.90;;;3.10;45.70;;;;;;5046296;28;20512;-55
2023/04/28 04:45:59;;;;;;;11.23;4.07;;;3.30;63.10;;;;;;5050933;28;20456;-55
2023/04/28 04:48:26;;;;;;;10.10;4.10;;;3.50;57.90;;;;;;5054926;28;20501;-57
2023/04/28 04:50:54;;;;;;;5.50;4.30;;;3.60;64.20;;;;;;5060344;28;20499;-56
2023/04/28 04:53:20;;;;;;;7.03;3.70;;;3.90;69.90;;;;;;5043381;28;20493;-55
2023/04/28 04:55:47;;;;;;;5.70;4.27;;;4.10;91.60;;;;;;5042554;28;20577;-56
2023/04/28 04:58:14;;;;;;;9.60;3.90;;;4.30;95.50;;;;;;5044184;28;20499;-56
2023/04/28 05:00:40;;;;;;;9.53;3.30;;;4.50;99.90;;;;;;5049486;28;20870;-55
2023/04/28 05:03:08;;;;;;;5.67;3.70;;;4.70;99.90;;;;;;5051586;28;20480;-56
2023/04/28 05:05:34;;;;;;;6.30;4.17;;;5.00;99.90;;;;;;5056254;28;20460;-55
2023/04/28 05:08:02;;;;;;;5.60;2.87;;;5.20;99.90;;;;;;5047821;28;20493;-56
2023/04/28 05:10:29;;;;;;;13.90;3.70;;;5.40;99.90;;;;;;5050892;28;20459;-56
2023/04/28 05:12:55;;;;;;;12.63;4.00;;;5.50;99.90;;;;;;5042931;28;20485;-56
2023/04/28 05:15:22;;;;;;;4.87;3.60;;;5.60;99.90;;;;;;5045148;28;20570;-56
2023/04/28 05:17:49;;;;;;;6.83;3.60;;;5.80;99.90;;;;;;5053862;28;20970;-55
2023/04/28 05:20:16;;;;;;;12.00;3.30;;;5.90;99.90;;;;;;5048170;28;20497;-57
2023/04/28 05:22:42;;;;;;;8.17;3.60;;;6.10;99.90;;;;;;5051176;28;20484;-55
2023/04/28 05:25:10;;;;;;;10.47;3.90;;;6.30;99.90;;;;;;5049619;28;20484;-55
2023/04/28 05:27:38;;;;;;;4.50;3.30;;;6.30;99.90;;;;;;5047090;28;20557;-55
2023/04/28 05:30:06;;;;;;;16.00;3.30;;;6.40;99.90;;;;;;5048354;28;20483;-55
2023/04/28 05:32:34;;;;;;;7.80;3.27;;;6.60;99.90;;;;;;5045234;28;20511;-55
2023/04/28 05:35:01;;;;;;;10.70;3.20;;;6.70;99.90;;;;;;5051904;28;20509;-54
2023/04/28 05:37:28;;;;;;;5.50;3.40;;;6.80;99.90;;;;;;5051144;28;20464;-56
2023/04/28 05:39:54;;;;;;;9.33;3.47;;;6.80;99.90;;;;;;5054972;28;20557;-55
2023/04/28 05:42:22;;;;;;;4.37;3.67;;;6.80;37.80;;;;;;5049759;28;20572;-54
2023/04/28 05:44:49;;;;;;;6.77;3.83;;;6.90;42.30;;;;;;5044716;28;20479;-56
2023/04/28 05:47:15;;;;;;;10.80;5.00;;;7.00;50.20;;;;;;5047443;28;20544;-57
2023/04/28 05:49:42;;;;;;;7.30;3.90;;;7.10;72.90;;;;;;5052476;28;20463;-54
2023/04/28 05:52:09;;;;;;;9.63;4.27;;;7.20;74.20;;;;;;5056711;28;20483;-55
2023/04/28 05:54:35;;;;;;;6.90;3.77;;;7.30;75.60;;;;;;5054907;28;21175;-56
2023/04/28 05:57:02;;;;;;;9.80;3.80;;;7.40;99.10;;;;;;5055106;28;20556;-55
2023/04/28 05:59:30;;;;;;;7.57;4.00;;;7.60;99.20;;;;;;5050595;28;20532;-55
2023/04/28 06:01:57;;;;;;;3.93;3.50;;;7.70;99.90;;;;;;5055058;28;20546;-55
2023/04/28 06:04:24;;;;;;;4.30;3.47;;;7.90;99.90;;;;;;5057241;28;20554;-55
2023/04/28 06:06:50;;;;;;;13.60;4.00;;;8.10;99.90;;;;;;5052066;28;20505;-55
2023/04/28 06:09:17;;;;;;;5.80;3.93;;;8.30;99.90;;;;;;5051933;28;20460;-54
2023/04/28 06:11:43;;;;;;;4.43;3.87;;;8.40;99.90;;;;;;5050818;28;20461;-55
2023/04/28 06:14:10;;;;;;;5.90;3.90;;;8.50;99.90;;;;;;5060269;28;20549;-55
2023/04/28 06:16:38;;;;;;;5.60;4.33;;;8.50;99.90;;;;;;5049802;28;20567;-56
2023/04/28 06:19:05;;;;;;;7.40;4.20;;;8.70;99.90;;;;;;5050710;28;21048;-56
2023/04/28 06:21:32;;;;;;;7.27;4.50;;;8.90;99.90;;;;;;5052069;28;20461;-55
2023/04/28 06:23:59;;;;;;;5.23;4.40;;;9.00;99.90;;;;;;5043352;28;20488;-55
2023/04/28 06:26:26;;;;;;;6.40;4.30;;;9.20;99.90;;;;;;5045974;28;20468;-55
2023/04/28 06:28:53;;;;;;;6.70;4.17;;;9.30;99.90;;;;;;5058236;28;20481;-54
2023/04/28 06:31:19;;;;;;;7.27;4.43;;;9.40;99.90;;;;;;5051525;28;20489;-56
2023/04/28 06:33:47;;;;;;;8.87;4.30;;;9.50;99.90;;;;;;5054957;28;20595;-56
2023/04/28 06:36:16;;;;;;;5.70;4.10;;;9.60;99.90;;;;;;5050130;28;21006;-56
2023/04/28 06:38:43;;;;;;;4.17;3.77;;;9.60;99.90;;;;;;5052677;28;20847;-56
2023/04/28 06:41:09;;;;;;;6.20;3.67;;;9.80;99.90;;;;;;5048681;28;20474;-57
2023/04/28 06:43:36;;;;;;;9.50;4.67;;;10.10;99.90;;;;;;5049276;28;20557;-56
2023/04/28 06:46:03;;;;;;;9.40;3.90;;;10.10;99.90;;;;;;5048699;28;20480;-56
2023/04/28 06:48:29;;;;;;;9.50;4.63;;;10.50;99.90;;;;;;5051606;28;20465;-56
2023/04/28 06:50:57;;;;;;;21.43;4.67;;;10.40;99.90;;;;;;5048062;28;20458;-56
2023/04/28 06:53:24;;;;;;;8.43;4.03;;;10.50;99.90;;;;;;5050214;28;20573;-55
2023/04/28 06:55:50;;;;;;;7.20;4.20;;;10.60;99.90;;;;;;5052727;28;20549;-56
2023/04/28 06:58:17;;;;;;;7.70;4.30;;;10.70;99.90;;;;;;5051188;28;20884;-55
2023/04/28 07:00:44;;;;;;;7.00;3.70;;;10.80;99.90;;;;;;5054514;28;20930;-55
2023/04/28 07:03:10;;;;;;;9.10;3.80;;;11.00;99.90;;;;;;5047200;28;20487;-57
2023/04/28 07:05:37;;;;;;;7.77;4.10;;;11.30;99.90;;;;;;5054830;28;20457;-56
2023/04/28 07:08:06;;;;;;;5.67;2.87;;;11.30;99.90;;;;;;5054005;28;21018;-55
2023/04/28 07:10:32;;;;;;;5.07;3.63;;;11.30;99.90;;;;;;5053644;28;20465;-56
2023/04/28 07:12:59;;;;;;;10.57;2.90;;;11.20;99.90;;;;;;5054566;28;20520;-56
2023/04/28 07:15:26;;;;;;;12.53;3.90;;;11.70;99.90;;;;;;5050864;28;20476;-57
2023/04/28 07:17:52;;;;;;;5.33;2.63;;;11.80;99.90;;;;;;5048001;28;20464;-56
2023/04/28 07:20:19;;;;;;;7.70;3.73;;;11.80;99.90;;;;;;5048451;28;20487;-56
2023/04/28 07:22:46;;;;;;;10.10;3.40;;;11.70;99.90;;;;;;5054019;28;20510;-57
2023/04/28 07:25:14;;;;;;;15.93;3.07;;;11.90;99.90;;;;;;5053033;28;20456;-57
2023/04/28 07:27:40;;;;;;;3.43;2.53;;;11.90;99.90;;;;;;5053991;28;20461;-55
2023/04/28 07:30:08;;;;;;;7.40;2.67;;;11.90;99.90;;;;;;5051785;28;20477;-56
2023/04/28 07:32:34;;;;;;;10.97;3.27;;;11.90;99.90;;;;;;5061451;28;20534;-56
2023/04/28 07:35:01;;;;;;;5.47;2.87;;;11.80;99.90;;;;;;5060240;28;20483;-56
2023/04/28 07:37:28;;;;;;;3.90;2.20;;;12.00;99.90;;;;;;5055498;28;20500;-56
2023/04/28 07:39:55;;;;;;;5.20;3.13;;;11.90;99.90;;;;;;5062068;28;20543;-55
2023/04/28 07:42:23;;;;;;;6.13;3.80;;;11.70;99.90;;;;;;5054820;28;20994;-57
2023/04/28 07:44:50;;;;;;;7.47;3.40;;;11.40;99.90;;;;;;5047772;28;20947;-56
2023/04/28 07:47:17;;;;;;;9.23;3.10;;;11.40;99.90;;;;;;5032603;28;20487;-56
2023/04/28 07:49:43;;;;;;;5.93;2.90;;;11.40;99.90;;;;;;5048064;28;20547;-56
2023/04/28 07:52:10;;;;;;;6.83;2.80;;;11.40;99.90;;;;;;5043330;28;20568;-56
2023/04/28 07:54:37;;;;;;;3.90;2.73;;;11.60;99.90;;;;;;5047021;28;20497;-56
2023/04/28 07:57:04;;;;;;;5.80;3.07;;;11.70;99.90;;;;;;5046756;28;21011;-55
2023/04/28 07:59:33;;;;;;;2.57;2.37;;;12.00;99.90;;;;;;5051006;28;20986;-56
2023/04/28 08:01:59;;;;;;;6.63;2.90;;;12.20;99.90;;;;;;5050525;28;20483;-56
2023/04/28 08:04:26;;;;;;;3.43;2.80;;;12.40;99.90;;;;;;5051255;28;20951;-57
2023/04/28 08:06:53;;;;;;;7.23;3.13;;;12.40;99.90;;;;;;5041162;28;20494;-56
2023/04/28 08:09:20;;;;;;;5.97;3.30;;;12.70;99.90;;;;;;5048402;28;20883;-58
2023/04/28 08:11:47;;;;;;;4.80;3.33;;;12.70;99.90;;;;;;5048523;28;20495;-55
2023/04/28 08:14:13;;;;;;;7.53;3.80;;;12.90;99.90;;;;;;5050558;28;20460;-56
2023/04/28 08:16:42;;;;;;;6.73;3.87;;;12.60;99.90;;;;;;5046754;28;20476;-60
2023/04/28 08:19:09;;;;;;;5.10;3.30;;;12.90;99.90;;;;;;5063389;28;21010;-56
2023/04/28 08:21:36;;;;;;;10.50;3.40;;;13.00;99.90;;;;;;5064499;28;20592;-56
2023/04/28 08:24:02;;;;;;;10.80;4.40;;;12.90;99.90;;;;;;5060358;28;20832;-55
2023/04/28 08:26:30;;;;;;;10.00;3.07;;;13.00;99.90;;;;;;5062407;28;20486;-56
2023/04/28 08:28:56;;;;;;;9.20;3.90;;;13.50;99.90;;;;;;5052347;28;20444;-56
2023/04/28 08:31:23;;;;;;;7.43;3.90;;;13.20;99.90;;;;;;5047953;28;21541;-57
2023/04/28 08:33:51;;;;;;;4.37;3.83;;;13.30;99.90;;;;;;5042241;28;21033;-55
2023/04/28 08:36:18;;;;;;;10.07;4.20;;;13.60;99.90;;;;;;5044093;28;20542;-55
2023/04/28 08:38:46;;;;;;;7.73;3.53;;;14.30;99.90;;;;;;5043526;28;20487;-57
2023/04/28 08:41:13;;;;;;;6.00;3.70;;;14.80;99.90;;;;;;5044862;28;20533;-55
2023/04/28 08:43:42;;;;;;;3.97;3.33;;;14.50;99.90;;;;;;5034512;28;20540;-55
2023/04/28 08:46:10;;;;;;;8.67;3.07;;;14.40;99.90;;;;;;5048335;28;20456;-56
2023/04/28 08:48:40;;;;;;;7.80;3.73;;;15.10;99.90;;;;;;5050778;28;20517;-56
2023/04/28 08:51:08;;;;;;;17.30;3.53;;;15.70;99.90;;;;;;5051151;28;20462;-56
2023/04/28 08:53:38;;;;;;;4.53;3.23;;;14.80;99.90;;;;;;5050781;28;20570;-49
2023/04/28 08:56:07;;;;;;;5.27;3.77;;;15.70;99.90;;;;;;5045412;28;20489;-48
2023/04/28 08:58:36;;;;;;;5.30;3.80;;;15.30;99.90;;;;;;5045582;28;20465;-49
2023/04/28 09:01:03;;;;;;;4.10;3.70;;;15.00;99.90;;;;;;5050291;28;20458;-49
2023/04/28 09:03:31;;;;;;;4.83;3.87;;;15.40;99.90;;;;;;5049352;28;20491;-49
2023/04/28 09:05:58;;;;;;;7.50;3.90;;;14.90;99.90;;;;;;5050444;28;20444;-48
2023/04/28 09:08:26;;;;;;;10.73;3.20;;;15.50;99.90;;;;;;5048958;28;20506;-49
2023/04/28 09:11:07;;;;;;;5.30;3.20;;;15.50;99.90;;;;;;5046969;28;21256;-48
2023/04/28 09:13:34;;;;;;;8.10;3.87;;;16.50;99.90;;;;;;5047659;28;20484;-50
2023/04/28 09:16:02;;;;;;;6.83;3.63;;;15.30;99.90;;;;;;5045969;28;20762;-48
2023/04/28 09:18:31;;;;;;;13.37;4.73;;;16.40;99.90;;;;;;5050630;28;20444;-49
2023/04/28 09:21:04;;;;;;;7.33;4.20;;;16.60;99.90;;;;;;5052401;28;20458;-49
2023/04/28 09:23:32;;;;;;;7.27;3.70;;;16.70;99.90;;;;;;5047657;28;20491;-49
2023/04/28 09:26:00;;;;;;;6.33;3.40;;;16.50;99.90;;;;;;5059559;28;20564;-49
2023/04/28 09:28:28;;;;;;;7.13;4.40;;;16.60;99.90;;;;;;5054929;28;20504;-49
2023/04/28 09:30:54;;;;;;;10.63;4.43;;;16.80;99.90;;;;;;5043415;28;20474;-49
2023/04/28 09:33:21;;;;;;;4.10;3.70;;;16.90;99.90;;;;;;5055976;28;20481;-50
2023/04/28 09:35:48;;;;;;;13.83;4.60;;;16.80;99.90;;;;;;5051026;28;20488;-55
2023/04/28 09:38:15;;;;;;;8.37;4.70;;;15.50;99.90;;;;;;5048179;28;20518;-50
2023/04/28 09:40:55;;;;;;;9.10;4.23;;;16.50;99.90;;;;;;5047028;28;20563;-50
2023/04/28 09:43:29;;;;;;;12.67;4.47;;;16.40;99.90;;;;;;5043630;28;20552;-50
2023/04/28 09:45:57;;;;;;;7.60;4.90;;;17.10;99.90;;;;;;5045871;28;20474;-49
2023/04/28 09:48:30;;;;;;;9.20;4.93;;;17.10;99.90;;;;;;5040935;28;20524;-49
2023/04/28 09:50:58;;;;;;;9.50;4.30;;;16.70;99.90;;;;;;5052577;28;20463;-49
2023/04/28 09:53:25;;;;;;;4.90;4.40;;;17.30;99.90;;;;;;5047238;28;20490;-49
2023/04/28 09:55:54;;;;;;;6.00;3.40;;;17.20;99.90;;;;;;5047321;28;21003;-49
2023/04/28 09:58:22;;;;;;;4.97;3.73;;;17.70;99.90;;;;;;5048256;28;20492;-49
2023/04/28 10:00:52;;;;;;;10.50;5.20;;;17.40;99.90;;;;;;5052863;28;20461;-48
2023/04/28 10:03:22;;;;;;;9.03;4.83;;;17.30;99.90;;;;;;5047457;28;20487;-49
2023/04/28 10:05:50;;;;;;;18.53;5.10;;;17.40;99.90;;;;;;5047890;28;20459;-50
2023/04/28 10:08:18;;;;;;;9.63;5.90;;;16.10;99.90;;;;;;5049181;28;20472;-49
2023/04/28 10:10:47;;;;;;;18.93;5.33;;;16.70;99.90;;;;;;5049944;28;20535;-50
2023/04/28 10:13:16;;;;;;;11.50;5.40;;;16.80;99.90;;;;;;5047621;28;20478;-49
2023/04/28 10:15:43;;;;;;;11.20;5.00;;;16.50;99.90;;;;;;5050281;28;20459;-49
2023/04/28 10:18:11;;;;;;;14.33;6.13;;;16.50;99.90;;;;;;5043058;28;20477;-52
2023/04/28 10:20:38;;;;;;;12.03;6.23;;;16.10;99.90;;;;;;5046932;28;20462;-48
2023/04/28 10:23:30;;;;;;;9.17;5.20;;;15.90;99.90;;;;;;5045861;28;20559;-49
2023/04/28 10:25:58;;;;;;;12.57;5.70;;;16.60;99.90;;;;;;5047907;28;20458;-50
2023/04/28 10:28:26;;;;;;;11.60;6.00;;;17.10;99.90;;;;;;5043863;28;20573;-48
2023/04/28 10:31:12;;;;;;;10.47;5.80;;;17.50;99.90;;;;;;5054953;28;20469;-49
2023/04/28 10:33:39;;;;;;;13.90;6.10;;;18.10;99.90;;;;;;5054960;28;20476;-50
2023/04/28 10:36:07;;;;;;;16.10;6.30;;;18.20;99.90;;;;;;5053310;28;20478;-50
2023/04/28 10:38:34;;;;;;;13.03;6.10;;;18.20;99.90;;;;;;5053818;28;20493;-49
2023/04/28 10:41:02;;;;;;;8.33;6.00;;;18.40;99.90;;;;;;5054114;28;20457;-50
2023/04/28 10:43:38;;;;;;;8.07;5.70;;;17.70;99.90;;;;;;5051041;28;20567;-49
2023/04/28 10:46:09;;;;;;;7.90;6.20;;;17.30;99.90;;;;;;5051375;28;20879;-50
2023/04/28 10:49:07;;;;;;;12.40;6.83;;;17.20;99.90;;;;;;5060658;28;20450;-51
2023/04/28 10:51:34;;;;;;;15.80;6.30;;;17.50;99.90;;;;;;5048698;28;20465;-51
2023/04/28 10:54:14;;;;;;;12.03;6.87;;;17.40;99.90;;;;;;5053691;28;20520;-50
2023/04/28 10:56:57;;;;;;;8.30;5.70;;;17.20;99.90;;;;;;5050398;28;20504;-50
2023/04/28 10:59:28;;;;;;;7.90;5.33;;;17.40;99.90;;;;;;5048530;28;20485;-50
2023/04/28 11:01:55;;;;;;;9.20;5.50;;;17.10;99.90;;;;;;5044632;28;20563;-49
2023/04/28 11:04:23;;;;;;;8.10;5.60;;;17.40;99.90;;;;;;5049638;28;21274;-49
2023/04/28 11:07:10;;;;;;;5.77;4.90;;;17.40;99.90;;;;;;5065418;28;20474;-51
2023/04/28 11:09:48;;;;;;;9.30;5.60;;;18.00;99.90;;;;;;5057424;28;20460;-50
2023/04/28 11:12:15;;;;;;;8.03;5.53;;;18.10;99.90;;;;;;5050240;28;20492;-49
2023/04/28 11:14:43;;;;;;;15.77;5.67;;;18.10;99.90;;;;;;5059924;28;20941;-50
2023/04/28 11:17:12;;;;;;;15.67;6.27;;;17.90;99.90;;;;;;5049013;28;20478;-49
2023/04/28 11:19:40;;;;;;;11.53;5.50;;;17.60;99.90;;;;;;5046998;28;20473;-49
2023/04/28 11:22:14;;;;;;;9.03;6.10;;;17.70;99.90;;;;;;5055590;28;20491;-49
2023/04/28 11:24:41;;;;;;;10.80;5.23;;;17.70;99.90;;;;;;5051199;28;20815;-50
2023/04/28 11:27:08;;;;;;;8.63;6.37;;;17.30;99.90;;;;;;5046878;28;20482;-48
2023/04/28 11:29:36;;;;;;;19.27;5.70;;;17.10;99.90;;;;;;5051003;28;20470;-49
2023/04/28 11:32:05;;;;;;;8.00;6.17;;;17.30;99.90;;;;;;5050517;28;20477;-50
2023/04/28 11:34:32;;;;;;;13.63;6.70;;;17.50;99.90;;;;;;5053955;28;20487;-49
2023/04/28 11:36:59;;;;;;;15.70;5.20;;;16.90;99.90;;;;;;5052617;28;20477;-49
2023/04/28 11:39:30;;;;;;;12.63;6.40;;;17.20;99.90;;;;;;5055282;28;20482;-55
2023/04/28 11:41:57;;;;;;;7.47;5.50;;;17.20;99.90;;;;;;5053257;28;20487;-50
2023/04/28 11:44:25;;;;;;;9.50;5.77;;;16.90;99.90;;;;;;5051822;28;20889;-48
2023/04/28 11:46:55;;;;;;;8.87;5.37;;;17.00;99.90;;;;;;5050227;28;20465;-48
2023/04/28 11:49:24;;;;;;;15.23;5.70;;;16.60;99.90;;;;;;5044770;28;20473;-49
2023/04/28 11:51:51;;;;;;;15.17;5.80;;;16.90;99.90;;;;;;5050704;28;20525;-49
2023/04/28 11:54:22;;;;;;;6.37;5.20;;;17.10;99.90;;;;;;5052353;28;20481;-49
2023/04/28 11:56:49;;;;;;;6.30;4.80;;;17.20;99.90;;;;;;5053802;28;20483;-49
2023/04/28 11:59:16;;;;;;;12.27;5.57;;;17.60;99.90;;;;;;5049779;28;20490;-48
2023/04/28 12:01:47;;;;;;;8.77;5.53;;;17.50;99.90;;;;;;5047616;28;20544;-48
2023/04/28 12:04:14;;;;;;;10.90;4.97;;;17.50;99.90;;;;;;5050790;28;20458;-49
2023/04/28 12:06:42;;;;;;;10.27;5.33;;;17.20;99.90;;;;;;5052277;28;20446;-49
2023/04/28 12:09:16;;;;;;;8.73;5.93;;;17.10;99.90;;;;;;5051378;28;20469;-49
2023/04/28 12:11:53;;;;;;;14.83;5.33;;;17.10;99.90;;;;;;5051420;28;20544;-49
2023/04/28 12:14:20;;;;;;;11.40;5.17;;;16.90;99.90;;;;;;5048805;28;21312;-49
2023/04/28 12:16:48;;;;;;;7.60;5.80;;;16.90;99.90;;;;;;5050891;28;20478;-49
2023/04/28 12:19:15;;;;;;;17.40;5.60;;;16.00;99.90;;;;;;5048769;28;20462;-49
2023/04/28 12:21:43;;;;;;;10.13;5.53;;;16.50;99.90;;;;;;5049747;28;20462;-49
2023/04/28 12:24:18;;;;;;;13.37;6.10;;;16.70;99.90;;;;;;5050019;28;20462;-49
2023/04/28 12:26:44;;;;;;;10.73;6.10;;;16.60;99.90;;;;;;5050683;28;20808;-49
2023/04/28 12:29:36;;;;;;;9.30;5.27;;;16.80;99.90;;;;;;5053225;28;20848;-48
2023/04/28 12:32:03;;;;;;;13.17;5.03;;;16.70;99.90;;;;;;5047767;28;20485;-50
2023/04/28 12:34:32;;;;;;;10.10;5.30;;;16.90;99.90;;;;;;5050830;28;20462;-49
2023/04/28 12:37:00;;;;;;;16.57;5.60;;;16.70;99.90;;;;;;5042117;28;20486;-49
2023/04/28 12:39:27;;;;;;;14.57;5.87;;;16.70;99.90;;;;;;5046922;28;20519;-49
2023/04/28 12:41:53;;;;;;;8.13;5.73;;;16.80;99.90;;;;;;5050440;28;21061;-49
2023/04/28 12:44:21;;;;;;;7.63;5.40;;;16.80;99.90;;;;;;5051351;28;20466;-48
2023/04/28 12:46:47;;;;;;;10.80;5.30;;;16.60;99.90;;;;;;5052090;28;20963;-49
2023/04/28 12:49:15;;;;;;;8.23;5.63;;;16.70;99.90;;;;;;5050957;28;20461;-49
2023/04/28 12:51:41;;;;;;;14.00;5.30;;;16.60;99.90;;;;;;5044488;28;20469;-49
2023/04/28 12:54:09;;;;;;;10.60;5.47;;;16.90;99.90;;;;;;5037834;28;20542;-49